sensor_id;sensor_type;location;lat;lon;timestamp;temperature;humidity
6956;DHT22;50345;51.136;16.886;2023-12-28T00:01:23;4.20;99.90
6956;DHT22;50345;51.136;16.886;2023-12-28T00:03:49;4.20;99.90
6956;DHT22;50345;51.136;16.886;2023-12-28T00:06:15;4.20;99.90
6956;DHT22;50345;51.136;16.886;2023-12-28T00:08:41;4.20;99.90
6956;DHT22;50345;51.136;16.886;2023-12-28T00:11:07;4.20;99.90
6956;DHT22;50345;51.136;16.886;2023-12-28T00:13:32;4.20;99.90
6956;DHT22;50345;51.136;16.886;2023-12-28T00:15:58;4.20;99.90
6956;DHT22;50345;51.136;16.886;2023-12-28T00:18:24;4.20;99.90
6956;DHT22;50345;51.136;16.886;2023-12-28T00:20:50;4.20;99.90
6956;DHT22;50345;51.136;16.886;2023-12-28T00:23:15;4.20;99.90
6956;DHT22;50345;51.136;16.886;2023-12-28T00:25:41;4.20;99.90
6956;DHT22;50345;51.136;16.886;2023-12-28T00:28:06;4.10;99.90
6956;DHT22;50345;51.136;16.886;2023-12-28T00:30:32;4.10;99.90
6956;DHT22;50345;51.136;16.886;2023-12-28T00:32:58;4.10;99.90
6956;DHT22;50345;51.136;16.886;2023-12-28T00:35:23;4.10;99.90
6956;DHT22;50345;51.136;16.886;2023-12-28T00:37:49;4.10;99.90
6956;DHT22;50345;51.136;16.886;2023-12-28T00:40:15;4.10;99.90
6956;DHT22;50345;51.136;16.886;2023-12-28T00:42:41;4.10;99.90
6956;DHT22;50345;51.136;16.886;2023-12-28T00:45:09;4.00;99.90
6956;DHT22;50345;51.136;16.886;2023-12-28T00:47:35;4.00;99.90
6956;DHT22;50345;51.136;16.886;2023-12-28T00:50:01;4.00;99.90
6956;DHT22;50345;51.136;16.886;2023-12-28T00:52:26;3.90;99.90
6956;DHT22;50345;51.136;16.886;2023-12-28T00:54:52;3.90;99.90
6956;DHT22;50345;51.136;16.886;2023-12-28T00:57:17;3.90;99.90
6956;DHT22;50345;51.136;16.886;2023-12-28T00:59:43;3.90;99.90
6956;DHT22;50345;51.136;16.886;2023-12-28T01:02:09;3.90;99.90
6956;DHT22;50345;51.136;16.886;2023-12-28T01:04:35;3.90;99.90
6956;DHT22;50345;51.136;16.886;2023-12-28T01:07:00;3.80;99.90
6956;DHT22;50345;51.136;16.886;2023-12-28T01:09:28;3.80;99.90
6956;DHT22;50345;51.136;16.886;2023-12-28T01:11:53;3.70;99.90
6956;DHT22;50345;51.136;16.886;2023-12-28T01:14:19;3.70;99.90
6956;DHT22;50345;51.136;16.886;2023-12-28T01:16:44;3.70;99.90
6956;DHT22;50345;51.136;16.886;2023-12-28T01:19:10;3.70;99.90
6956;DHT22;50345;51.136;16.886;2023-12-28T01:21:36;3.70;99.90
6956;DHT22;50345;51.136;16.886;2023-12-28T01:24:02;3.70;99.90
6956;DHT22;50345;51.136;16.886;2023-12-28T01:26:28;3.70;99.90
6956;DHT22;50345;51.136;16.886;2023-12-28T01:28:53;3.60;99.90
6956;DHT22;50345;51.136;16.886;2023-12-28T01:31:19;3.60;99.90
6956;DHT22;50345;51.136;16.886;2023-12-28T01:33:45;3.60;99.90
6956;DHT22;50345;51.136;16.886;2023-12-28T01:36:17;3.70;99.90
6956;DHT22;50345;51.136;16.886;2023-12-28T01:38:43;3.70;99.90
6956;DHT22;50345;51.136;16.886;2023-12-28T01:41:09;3.70;99.90
6956;DHT22;50345;51.136;16.886;2023-12-28T01:43:35;3.70;99.90
6956;DHT22;50345;51.136;16.886;2023-12-28T01:46:01;3.70;99.90
6956;DHT22;50345;51.136;16.886;2023-12-28T01:48:28;3.60;99.90
6956;DHT22;50345;51.136;16.886;2023-12-28T01:50:55;3.60;99.90
6956;DHT22;50345;51.136;16.886;2023-12-28T01:53:22;3.60;99.90
6956;DHT22;50345;51.136;16.886;2023-12-28T01:55:48;3.70;99.90
6956;DHT22;50345;51.136;16.886;2023-12-28T01:58:13;3.70;99.90
6956;DHT22;50345;51.136;16.886;2023-12-28T02:00:40;3.70;99.90
6956;DHT22;50345;51.136;16.886;2023-12-28T02:03:06;3.60;99.90
6956;DHT22;50345;51.136;16.886;2023-12-28T02:05:33;3.60;99.90
6956;DHT22;50345;51.136;16.886;2023-12-28T02:07:58;3.60;99.90
6956;DHT22;50345;51.136;16.886;2023-12-28T02:10:24;3.50;99.90
6956;DHT22;50345;51.136;16.886;2023-12-28T02:12:50;3.50;99.90
6956;DHT22;50345;51.136;16.886;2023-12-28T02:15:16;3.50;99.90
6956;DHT22;50345;51.136;16.886;2023-12-28T02:17:47;3.50;99.90
6956;DHT22;50345;51.136;16.886;2023-12-28T02:20:17;3.50;99.90
6956;DHT22;50345;51.136;16.886;2023-12-28T02:22:44;3.50;99.90
6956;DHT22;50345;51.136;16.886;2023-12-28T02:25:11;3.50;99.90
6956;DHT22;50345;51.136;16.886;2023-12-28T02:27:44;3.50;99.90
6956;DHT22;50345;51.136;16.886;2023-12-28T02:30:12;3.50;99.90
6956;DHT22;50345;51.136;16.886;2023-12-28T02:35:36;3.50;99.90
6956;DHT22;50345;51.136;16.886;2023-12-28T02:38:09;3.50;99.90
6956;DHT22;50345;51.136;16.886;2023-12-28T02:40:40;3.50;99.90
6956;DHT22;50345;51.136;16.886;2023-12-28T02:43:06;3.50;99.90
6956;DHT22;50345;51.136;16.886;2023-12-28T02:45:33;3.50;99.90
6956;DHT22;50345;51.136;16.886;2023-12-28T02:47:59;3.50;99.90
6956;DHT22;50345;51.136;16.886;2023-12-28T02:50:24;3.40;99.90
6956;DHT22;50345;51.136;16.886;2023-12-28T02:52:50;3.40;99.90
6956;DHT22;50345;51.136;16.886;2023-12-28T02:55:16;3.40;99.90
6956;DHT22;50345;51.136;16.886;2023-12-28T02:57:44;3.40;99.90
6956;DHT22;50345;51.136;16.886;2023-12-28T03:00:10;3.40;99.90
6956;DHT22;50345;51.136;16.886;2023-12-28T03:02:37;3.30;99.90
6956;DHT22;50345;51.136;16.886;2023-12-28T03:05:06;3.30;99.90
6956;DHT22;50345;51.136;16.886;2023-12-28T03:07:33;3.30;99.90
6956;DHT22;50345;51.136;16.886;2023-12-28T03:09:58;3.20;99.90
6956;DHT22;50345;51.136;16.886;2023-12-28T03:12:24;3.20;99.90
6956;DHT22;50345;51.136;16.886;2023-12-28T03:14:50;3.20;99.90
6956;DHT22;50345;51.136;16.886;2023-12-28T03:17:15;3.20;99.90
6956;DHT22;50345;51.136;16.886;2023-12-28T03:19:41;3.20;99.90
6956;DHT22;50345;51.136;16.886;2023-12-28T03:22:06;3.10;99.90
6956;DHT22;50345;51.136;16.886;2023-12-28T03:24:32;3.10;99.90
6956;DHT22;50345;51.136;16.886;2023-12-28T03:26:58;3.10;99.90
6956;DHT22;50345;51.136;16.886;2023-12-28T03:29:24;3.10;99.90
6956;DHT22;50345;51.136;16.886;2023-12-28T03:31:50;3.10;99.90
6956;DHT22;50345;51.136;16.886;2023-12-28T03:34:16;3.10;99.90
6956;DHT22;50345;51.136;16.886;2023-12-28T03:36:41;3.10;99.90
6956;DHT22;50345;51.136;16.886;2023-12-28T03:39:08;3.10;99.90
6956;DHT22;50345;51.136;16.886;2023-12-28T03:41:33;3.10;99.90
6956;DHT22;50345;51.136;16.886;2023-12-28T03:43:59;3.10;99.90
6956;DHT22;50345;51.136;16.886;2023-12-28T03:46:25;3.10;99.90
6956;DHT22;50345;51.136;16.886;2023-12-28T03:48:54;3.10;99.90
6956;DHT22;50345;51.136;16.886;2023-12-28T03:51:20;3.00;99.90
6956;DHT22;50345;51.136;16.886;2023-12-28T03:53:45;3.10;99.90
6956;DHT22;50345;51.136;16.886;2023-12-28T03:56:25;3.10;99.90
6956;DHT22;50345;51.136;16.886;2023-12-28T03:58:51;3.10;99.90
6956;DHT22;50345;51.136;16.886;2023-12-28T04:01:18;3.10;99.90
6956;DHT22;50345;51.136;16.886;2023-12-28T04:03:44;3.10;99.90
6956;DHT22;50345;51.136;16.886;2023-12-28T04:06:09;3.10;99.90
6956;DHT22;50345;51.136;16.886;2023-12-28T04:08:35;3.10;99.90
6956;DHT22;50345;51.136;16.886;2023-12-28T04:11:00;3.10;99.90
6956;DHT22;50345;51.136;16.886;2023-12-28T04:13:26;3.10;99.90
6956;DHT22;50345;51.136;16.886;2023-12-28T04:15:51;3.10;99.90
6956;DHT22;50345;51.136;16.886;2023-12-28T04:18:17;3.10;99.90
6956;DHT22;50345;51.136;16.886;2023-12-28T04:20:43;3.00;99.90
6956;DHT22;50345;51.136;16.886;2023-12-28T04:23:10;3.00;99.90
6956;DHT22;50345;51.136;16.886;2023-12-28T04:25:35;3.00;99.90
6956;DHT22;50345;51.136;16.886;2023-12-28T04:28:01;3.00;99.90
6956;DHT22;50345;51.136;16.886;2023-12-28T04:30:27;3.00;99.90
6956;DHT22;50345;51.136;16.886;2023-12-28T04:32:53;2.90;99.90
6956;DHT22;50345;51.136;16.886;2023-12-28T04:35:19;2.90;99.90
6956;DHT22;50345;51.136;16.886;2023-12-28T04:37:44;2.90;99.90
6956;DHT22;50345;51.136;16.886;2023-12-28T04:40:10;3.00;99.90
6956;DHT22;50345;51.136;16.886;2023-12-28T04:42:36;2.90;99.90
6956;DHT22;50345;51.136;16.886;2023-12-28T04:45:01;2.90;99.90
6956;DHT22;50345;51.136;16.886;2023-12-28T04:47:27;2.90;99.90
6956;DHT22;50345;51.136;16.886;2023-12-28T04:49:52;2.90;99.90
6956;DHT22;50345;51.136;16.886;2023-12-28T04:52:18;2.90;99.90
6956;DHT22;50345;51.136;16.886;2023-12-28T04:54:43;2.90;99.90
6956;DHT22;50345;51.136;16.886;2023-12-28T04:57:09;2.90;99.90
6956;DHT22;50345;51.136;16.886;2023-12-28T04:59:38;2.90;99.90
6956;DHT22;50345;51.136;16.886;2023-12-28T05:02:04;2.90;99.90
6956;DHT22;50345;51.136;16.886;2023-12-28T05:04:30;2.90;99.90
6956;DHT22;50345;51.136;16.886;2023-12-28T05:06:55;2.80;99.90
6956;DHT22;50345;51.136;16.886;2023-12-28T05:09:21;2.80;99.90
6956;DHT22;50345;51.136;16.886;2023-12-28T05:11:46;2.70;99.90
6956;DHT22;50345;51.136;16.886;2023-12-28T05:14:12;2.70;99.90
6956;DHT22;50345;51.136;16.886;2023-12-28T05:16:38;2.70;99.90
6956;DHT22;50345;51.136;16.886;2023-12-28T05:19:03;2.70;99.90
6956;DHT22;50345;51.136;16.886;2023-12-28T05:21:29;2.70;99.90
6956;DHT22;50345;51.136;16.886;2023-12-28T05:23:54;2.70;99.90
6956;DHT22;50345;51.136;16.886;2023-12-28T05:26:20;2.60;99.90
6956;DHT22;50345;51.136;16.886;2023-12-28T05:28:46;2.60;99.90
6956;DHT22;50345;51.136;16.886;2023-12-28T05:31:11;2.70;99.90
6956;DHT22;50345;51.136;16.886;2023-12-28T05:33:38;2.80;99.90
6956;DHT22;50345;51.136;16.886;2023-12-28T05:36:05;2.90;99.90
6956;DHT22;50345;51.136;16.886;2023-12-28T05:38:30;3.00;99.90
6956;DHT22;50345;51.136;16.886;2023-12-28T05:40:56;3.30;99.90
6956;DHT22;50345;51.136;16.886;2023-12-28T05:43:21;3.60;99.90
6956;DHT22;50345;51.136;16.886;2023-12-28T05:45:47;3.80;99.90
6956;DHT22;50345;51.136;16.886;2023-12-28T05:48:13;4.10;99.90
6956;DHT22;50345;51.136;16.886;2023-12-28T05:50:38;4.30;99.90
6956;DHT22;50345;51.136;16.886;2023-12-28T05:53:04;4.60;99.90
6956;DHT22;50345;51.136;16.886;2023-12-28T05:55:29;4.80;99.90
6956;DHT22;50345;51.136;16.886;2023-12-28T05:57:55;5.00;99.90
6956;DHT22;50345;51.136;16.886;2023-12-28T06:00:20;5.10;99.90
6956;DHT22;50345;51.136;16.886;2023-12-28T06:02:46;5.30;99.90
6956;DHT22;50345;51.136;16.886;2023-12-28T06:05:12;5.40;99.90
6956;DHT22;50345;51.136;16.886;2023-12-28T06:07:37;5.40;99.90
6956;DHT22;50345;51.136;16.886;2023-12-28T06:10:03;5.50;99.90
6956;DHT22;50345;51.136;16.886;2023-12-28T06:12:29;5.60;99.90
6956;DHT22;50345;51.136;16.886;2023-12-28T06:14:55;5.70;99.90
6956;DHT22;50345;51.136;16.886;2023-12-28T06:17:21;5.80;99.90
6956;DHT22;50345;51.136;16.886;2023-12-28T06:19:46;5.90;99.90
6956;DHT22;50345;51.136;16.886;2023-12-28T06:22:12;6.00;99.90
6956;DHT22;50345;51.136;16.886;2023-12-28T06:24:38;6.00;99.90
6956;DHT22;50345;51.136;16.886;2023-12-28T06:27:07;6.10;99.90
6956;DHT22;50345;51.136;16.886;2023-12-28T06:29:32;6.10;99.90
6956;DHT22;50345;51.136;16.886;2023-12-28T06:31:58;6.20;99.90
6956;DHT22;50345;51.136;16.886;2023-12-28T06:34:23;6.30;99.90
6956;DHT22;50345;51.136;16.886;2023-12-28T06:36:49;6.30;99.90
6956;DHT22;50345;51.136;16.886;2023-12-28T06:39:14;6.30;99.90
6956;DHT22;50345;51.136;16.886;2023-12-28T06:41:40;6.40;99.90
6956;DHT22;50345;51.136;16.886;2023-12-28T06:44:05;6.40;99.90
6956;DHT22;50345;51.136;16.886;2023-12-28T06:46:31;6.40;99.90
6956;DHT22;50345;51.136;16.886;2023-12-28T06:48:57;6.40;99.90
6956;DHT22;50345;51.136;16.886;2023-12-28T06:51:24;6.50;99.90
6956;DHT22;50345;51.136;16.886;2023-12-28T06:53:50;6.50;99.90
6956;DHT22;50345;51.136;16.886;2023-12-28T06:56:16;6.60;99.90
6956;DHT22;50345;51.136;16.886;2023-12-28T06:58:42;6.60;99.90
6956;DHT22;50345;51.136;16.886;2023-12-28T07:01:07;6.70;99.90
6956;DHT22;50345;51.136;16.886;2023-12-28T07:03:33;6.70;99.90
6956;DHT22;50345;51.136;16.886;2023-12-28T07:05:59;6.80;99.90
6956;DHT22;50345;51.136;16.886;2023-12-28T07:08:25;6.90;99.90
6956;DHT22;50345;51.136;16.886;2023-12-28T07:10:50;7.00;99.90
6956;DHT22;50345;51.136;16.886;2023-12-28T07:13:16;7.00;99.90
6956;DHT22;50345;51.136;16.886;2023-12-28T07:15:41;7.10;99.90
6956;DHT22;50345;51.136;16.886;2023-12-28T07:18:07;7.10;99.90
6956;DHT22;50345;51.136;16.886;2023-12-28T07:20:33;7.20;99.90
6956;DHT22;50345;51.136;16.886;2023-12-28T07:22:58;7.40;99.90
6956;DHT22;50345;51.136;16.886;2023-12-28T07:25:24;7.50;99.90
6956;DHT22;50345;51.136;16.886;2023-12-28T07:27:49;7.60;99.90
6956;DHT22;50345;51.136;16.886;2023-12-28T07:30:15;7.80;99.90
6956;DHT22;50345;51.136;16.886;2023-12-28T07:32:42;7.90;99.90
6956;DHT22;50345;51.136;16.886;2023-12-28T07:35:07;8.00;99.90
6956;DHT22;50345;51.136;16.886;2023-12-28T07:37:33;8.10;99.90
6956;DHT22;50345;51.136;16.886;2023-12-28T07:39:59;8.30;99.90
6956;DHT22;50345;51.136;16.886;2023-12-28T07:42:25;8.30;99.90
6956;DHT22;50345;51.136;16.886;2023-12-28T07:44:50;8.40;99.90
6956;DHT22;50345;51.136;16.886;2023-12-28T07:47:16;8.50;99.90
6956;DHT22;50345;51.136;16.886;2023-12-28T07:49:41;8.60;99.90
6956;DHT22;50345;51.136;16.886;2023-12-28T07:52:07;8.70;99.90
6956;DHT22;50345;51.136;16.886;2023-12-28T07:54:33;8.70;99.90
6956;DHT22;50345;51.136;16.886;2023-12-28T07:56:59;8.80;99.90
6956;DHT22;50345;51.136;16.886;2023-12-28T07:59:25;8.90;99.90
6956;DHT22;50345;51.136;16.886;2023-12-28T08:01:50;8.90;99.90
6956;DHT22;50345;51.136;16.886;2023-12-28T08:04:16;9.00;99.90
6956;DHT22;50345;51.136;16.886;2023-12-28T08:06:42;9.00;99.90
6956;DHT22;50345;51.136;16.886;2023-12-28T08:09:07;9.00;99.90
6956;DHT22;50345;51.136;16.886;2023-12-28T08:11:34;9.10;99.90
6956;DHT22;50345;51.136;16.886;2023-12-28T08:14:00;9.10;99.90
6956;DHT22;50345;51.136;16.886;2023-12-28T08:16:25;9.10;99.90
6956;DHT22;50345;51.136;16.886;2023-12-28T08:18:51;9.20;99.90
6956;DHT22;50345;51.136;16.886;2023-12-28T08:21:17;9.20;99.90
6956;DHT22;50345;51.136;16.886;2023-12-28T08:23:43;9.30;99.90
6956;DHT22;50345;51.136;16.886;2023-12-28T08:26:09;9.40;99.90
6956;DHT22;50345;51.136;16.886;2023-12-28T08:28:36;9.50;99.90
6956;DHT22;50345;51.136;16.886;2023-12-28T08:31:02;9.60;99.90
6956;DHT22;50345;51.136;16.886;2023-12-28T08:33:27;9.60;99.90
6956;DHT22;50345;51.136;16.886;2023-12-28T08:35:53;9.70;99.90
6956;DHT22;50345;51.136;16.886;2023-12-28T08:38:19;9.80;99.90
6956;DHT22;50345;51.136;16.886;2023-12-28T08:40:45;9.90;99.90
6956;DHT22;50345;51.136;16.886;2023-12-28T08:43:10;10.00;99.30
6956;DHT22;50345;51.136;16.886;2023-12-28T08:45:36;10.10;99.20
6956;DHT22;50345;51.136;16.886;2023-12-28T08:48:02;10.20;98.80
6956;DHT22;50345;51.136;16.886;2023-12-28T08:50:29;10.20;98.60
6956;DHT22;50345;51.136;16.886;2023-12-28T08:52:55;10.20;98.40
6956;DHT22;50345;51.136;16.886;2023-12-28T08:55:21;10.20;97.90
6956;DHT22;50345;51.136;16.886;2023-12-28T08:57:47;10.20;97.70
6956;DHT22;50345;51.136;16.886;2023-12-28T09:00:13;10.20;98.00
6956;DHT22;50345;51.136;16.886;2023-12-28T09:02:40;10.10;98.10
6956;DHT22;50345;51.136;16.886;2023-12-28T09:05:06;10.10;98.40
6956;DHT22;50345;51.136;16.886;2023-12-28T09:07:32;10.10;98.70
6956;DHT22;50345;51.136;16.886;2023-12-28T09:09:57;10.10;98.80
6956;DHT22;50345;51.136;16.886;2023-12-28T09:12:23;10.10;99.20
6956;DHT22;50345;51.136;16.886;2023-12-28T09:14:49;10.10;98.70
6956;DHT22;50345;51.136;16.886;2023-12-28T09:17:20;10.20;98.30
6956;DHT22;50345;51.136;16.886;2023-12-28T09:19:46;10.20;97.90
6956;DHT22;50345;51.136;16.886;2023-12-28T09:22:11;10.20;98.00
6956;DHT22;50345;51.136;16.886;2023-12-28T09:24:37;10.20;97.80
6956;DHT22;50345;51.136;16.886;2023-12-28T09:27:03;10.20;97.60
6956;DHT22;50345;51.136;16.886;2023-12-28T09:29:28;10.20;97.60
6956;DHT22;50345;51.136;16.886;2023-12-28T09:31:54;10.20;97.20
6956;DHT22;50345;51.136;16.886;2023-12-28T09:34:19;10.20;97.20
6956;DHT22;50345;51.136;16.886;2023-12-28T09:36:45;10.20;97.40
6956;DHT22;50345;51.136;16.886;2023-12-28T09:39:10;10.20;97.40
6956;DHT22;50345;51.136;16.886;2023-12-28T09:41:39;10.20;97.30
6956;DHT22;50345;51.136;16.886;2023-12-28T09:44:11;10.20;97.50
6956;DHT22;50345;51.136;16.886;2023-12-28T09:46:37;10.20;97.60
6956;DHT22;50345;51.136;16.886;2023-12-28T09:49:04;10.20;98.00
6956;DHT22;50345;51.136;16.886;2023-12-28T09:51:30;10.20;98.10
6956;DHT22;50345;51.136;16.886;2023-12-28T09:53:56;10.20;98.40
6956;DHT22;50345;51.136;16.886;2023-12-28T09:56:22;10.20;98.80
6956;DHT22;50345;51.136;16.886;2023-12-28T09:58:49;10.30;99.00
6956;DHT22;50345;51.136;16.886;2023-12-28T10:01:17;10.30;98.70
6956;DHT22;50345;51.136;16.886;2023-12-28T10:03:43;10.30;98.80
6956;DHT22;50345;51.136;16.886;2023-12-28T10:06:09;10.30;99.00
6956;DHT22;50345;51.136;16.886;2023-12-28T10:08:35;10.30;99.10
6956;DHT22;50345;51.136;16.886;2023-12-28T10:11:02;10.40;99.20
6956;DHT22;50345;51.136;16.886;2023-12-28T10:13:28;10.40;99.20
6956;DHT22;50345;51.136;16.886;2023-12-28T10:15:57;10.40;99.20
6956;DHT22;50345;51.136;16.886;2023-12-28T10:18:23;10.40;99.50
6956;DHT22;50345;51.136;16.886;2023-12-28T10:20:53;10.40;99.70
6956;DHT22;50345;51.136;16.886;2023-12-28T10:23:19;10.40;99.90
6956;DHT22;50345;51.136;16.886;2023-12-28T10:25:45;10.40;99.90
6956;DHT22;50345;51.136;16.886;2023-12-28T10:28:11;10.40;99.90
6956;DHT22;50345;51.136;16.886;2023-12-28T10:30:38;10.40;99.90
6956;DHT22;50345;51.136;16.886;2023-12-28T10:33:07;10.30;99.90
6956;DHT22;50345;51.136;16.886;2023-12-28T10:35:32;10.30;99.90
6956;DHT22;50345;51.136;16.886;2023-12-28T10:38:00;10.30;99.90
6956;DHT22;50345;51.136;16.886;2023-12-28T10:40:27;10.30;99.90
6956;DHT22;50345;51.136;16.886;2023-12-28T10:43:04;10.20;99.90
6956;DHT22;50345;51.136;16.886;2023-12-28T10:45:32;10.20;99.90
6956;DHT22;50345;51.136;16.886;2023-12-28T10:48:09;10.10;99.90
6956;DHT22;50345;51.136;16.886;2023-12-28T10:50:48;10.10;99.90
6956;DHT22;50345;51.136;16.886;2023-12-28T11:01:42;10.10;99.90
6956;DHT22;50345;51.136;16.886;2023-12-28T11:06:42;10.10;99.90
6956;DHT22;50345;51.136;16.886;2023-12-28T11:09:10;10.10;99.90
6956;DHT22;50345;51.136;16.886;2023-12-28T11:11:37;10.10;99.90
6956;DHT22;50345;51.136;16.886;2023-12-28T11:14:03;10.10;99.90
6956;DHT22;50345;51.136;16.886;2023-12-28T11:16:30;10.10;99.90
6956;DHT22;50345;51.136;16.886;2023-12-28T11:18:57;10.10;99.90
6956;DHT22;50345;51.136;16.886;2023-12-28T11:21:24;10.20;99.90
6956;DHT22;50345;51.136;16.886;2023-12-28T11:23:50;10.30;99.90
6956;DHT22;50345;51.136;16.886;2023-12-28T11:26:21;10.40;99.90
6956;DHT22;50345;51.136;16.886;2023-12-28T11:28:47;10.40;99.90
6956;DHT22;50345;51.136;16.886;2023-12-28T11:31:14;10.50;99.90
6956;DHT22;50345;51.136;16.886;2023-12-28T11:33:47;10.50;99.90
6956;DHT22;50345;51.136;16.886;2023-12-28T11:36:48;10.60;99.90
6956;DHT22;50345;51.136;16.886;2023-12-28T11:39:38;10.60;99.90
6956;DHT22;50345;51.136;16.886;2023-12-28T11:42:09;10.60;99.90
6956;DHT22;50345;51.136;16.886;2023-12-28T11:44:39;10.70;99.90
6956;DHT22;50345;51.136;16.886;2023-12-28T11:47:20;10.70;99.90
6956;DHT22;50345;51.136;16.886;2023-12-28T11:49:46;10.70;99.90
6956;DHT22;50345;51.136;16.886;2023-12-28T11:52:25;10.70;99.90
6956;DHT22;50345;51.136;16.886;2023-12-28T11:54:51;10.70;99.90
6956;DHT22;50345;51.136;16.886;2023-12-28T11:57:17;10.80;99.90
6956;DHT22;50345;51.136;16.886;2023-12-28T11:59:43;10.80;99.90
6956;DHT22;50345;51.136;16.886;2023-12-28T12:02:09;10.70;99.90
6956;DHT22;50345;51.136;16.886;2023-12-28T12:04:35;10.70;99.90
6956;DHT22;50345;51.136;16.886;2023-12-28T12:07:04;10.70;99.90
6956;DHT22;50345;51.136;16.886;2023-12-28T12:09:31;10.70;99.90
6956;DHT22;50345;51.136;16.886;2023-12-28T12:12:03;10.70;99.90
6956;DHT22;50345;51.136;16.886;2023-12-28T12:14:29;10.60;99.90
6956;DHT22;50345;51.136;16.886;2023-12-28T12:16:59;10.60;99.90
6956;DHT22;50345;51.136;16.886;2023-12-28T12:19:25;10.50;99.90
6956;DHT22;50345;51.136;16.886;2023-12-28T12:21:55;10.50;99.90
6956;DHT22;50345;51.136;16.886;2023-12-28T12:24:21;10.50;99.90
6956;DHT22;50345;51.136;16.886;2023-12-28T12:26:47;10.50;99.90
6956;DHT22;50345;51.136;16.886;2023-12-28T12:29:13;10.40;99.90
6956;DHT22;50345;51.136;16.886;2023-12-28T12:31:43;10.40;99.90
6956;DHT22;50345;51.136;16.886;2023-12-28T12:34:10;10.40;99.90
6956;DHT22;50345;51.136;16.886;2023-12-28T12:36:36;10.30;99.90
6956;DHT22;50345;51.136;16.886;2023-12-28T12:39:03;10.30;99.90
6956;DHT22;50345;51.136;16.886;2023-12-28T12:41:34;10.20;99.90
6956;DHT22;50345;51.136;16.886;2023-12-28T12:44:00;10.20;99.90
6956;DHT22;50345;51.136;16.886;2023-12-28T12:46:26;10.20;99.90
6956;DHT22;50345;51.136;16.886;2023-12-28T12:48:58;10.10;99.90
6956;DHT22;50345;51.136;16.886;2023-12-28T12:51:28;10.10;99.90
6956;DHT22;50345;51.136;16.886;2023-12-28T12:53:57;10.10;99.90
6956;DHT22;50345;51.136;16.886;2023-12-28T12:56:25;10.10;99.90
6956;DHT22;50345;51.136;16.886;2023-12-28T12:58:51;10.00;99.90
6956;DHT22;50345;51.136;16.886;2023-12-28T13:01:16;10.00;99.90
6956;DHT22;50345;51.136;16.886;2023-12-28T13:03:42;10.00;99.90
6956;DHT22;50345;51.136;16.886;2023-12-28T13:06:07;10.00;99.90
6956;DHT22;50345;51.136;16.886;2023-12-28T13:08:33;10.00;99.90
6956;DHT22;50345;51.136;16.886;2023-12-28T13:10:59;10.00;99.90
6956;DHT22;50345;51.136;16.886;2023-12-28T13:13:24;10.00;99.90
6956;DHT22;50345;51.136;16.886;2023-12-28T13:15:50;9.90;99.90
6956;DHT22;50345;51.136;16.886;2023-12-28T13:18:15;10.00;99.90
6956;DHT22;50345;51.136;16.886;2023-12-28T13:20:41;10.00;99.90
6956;DHT22;50345;51.136;16.886;2023-12-28T13:23:08;9.90;99.90
6956;DHT22;50345;51.136;16.886;2023-12-28T13:25:34;10.00;99.90
6956;DHT22;50345;51.136;16.886;2023-12-28T13:27:59;10.00;99.90
6956;DHT22;50345;51.136;16.886;2023-12-28T13:30:25;9.90;99.90
6956;DHT22;50345;51.136;16.886;2023-12-28T13:32:54;10.00;99.90
6956;DHT22;50345;51.136;16.886;2023-12-28T13:35:22;10.00;99.90
6956;DHT22;50345;51.136;16.886;2023-12-28T13:37:47;10.00;99.90
6956;DHT22;50345;51.136;16.886;2023-12-28T13:40:13;9.90;99.90
6956;DHT22;50345;51.136;16.886;2023-12-28T13:42:38;10.00;99.90
6956;DHT22;50345;51.136;16.886;2023-12-28T13:45:04;9.90;99.90
6956;DHT22;50345;51.136;16.886;2023-12-28T13:47:30;9.90;99.90
6956;DHT22;50345;51.136;16.886;2023-12-28T13:49:55;9.90;99.90
6956;DHT22;50345;51.136;16.886;2023-12-28T13:52:22;9.90;99.90
6956;DHT22;50345;51.136;16.886;2023-12-28T13:54:47;9.90;99.90
6956;DHT22;50345;51.136;16.886;2023-12-28T13:57:13;9.90;99.90
6956;DHT22;50345;51.136;16.886;2023-12-28T13:59:38;9.90;99.90
6956;DHT22;50345;51.136;16.886;2023-12-28T14:02:05;9.90;99.90
6956;DHT22;50345;51.136;16.886;2023-12-28T14:04:31;9.90;99.90
6956;DHT22;50345;51.136;16.886;2023-12-28T14:06:56;9.80;99.90
6956;DHT22;50345;51.136;16.886;2023-12-28T14:09:22;9.80;99.90
6956;DHT22;50345;51.136;16.886;2023-12-28T14:11:47;9.80;99.90
6956;DHT22;50345;51.136;16.886;2023-12-28T14:14:13;9.80;99.90
6956;DHT22;50345;51.136;16.886;2023-12-28T14:16:39;9.70;99.90
6956;DHT22;50345;51.136;16.886;2023-12-28T14:19:05;9.70;99.90
6956;DHT22;50345;51.136;16.886;2023-12-28T14:21:37;9.70;99.90
6956;DHT22;50345;51.136;16.886;2023-12-28T14:24:04;9.60;99.90
6956;DHT22;50345;51.136;16.886;2023-12-28T14:26:32;9.60;99.90
6956;DHT22;50345;51.136;16.886;2023-12-28T14:28:59;9.50;99.90
6956;DHT22;50345;51.136;16.886;2023-12-28T14:31:25;9.50;99.90
6956;DHT22;50345;51.136;16.886;2023-12-28T14:33:52;9.40;99.90
6956;DHT22;50345;51.136;16.886;2023-12-28T14:36:30;9.40;99.90
6956;DHT22;50345;51.136;16.886;2023-12-28T14:38:59;9.30;99.90
6956;DHT22;50345;51.136;16.886;2023-12-28T14:41:25;9.20;99.90
6956;DHT22;50345;51.136;16.886;2023-12-28T14:43:51;9.20;99.90
6956;DHT22;50345;51.136;16.886;2023-12-28T14:46:16;9.10;99.90
6956;DHT22;50345;51.136;16.886;2023-12-28T14:48:42;9.10;99.90
6956;DHT22;50345;51.136;16.886;2023-12-28T14:51:08;9.00;99.90
6956;DHT22;50345;51.136;16.886;2023-12-28T14:53:33;9.00;99.90
6956;DHT22;50345;51.136;16.886;2023-12-28T14:55:59;8.90;99.90
6956;DHT22;50345;51.136;16.886;2023-12-28T14:58:25;8.80;99.90
6956;DHT22;50345;51.136;16.886;2023-12-28T15:00:52;8.80;99.90
6956;DHT22;50345;51.136;16.886;2023-12-28T15:03:17;8.70;99.90
6956;DHT22;50345;51.136;16.886;2023-12-28T15:05:43;8.60;99.90
6956;DHT22;50345;51.136;16.886;2023-12-28T15:08:08;8.60;99.90
6956;DHT22;50345;51.136;16.886;2023-12-28T15:10:34;8.50;99.90
6956;DHT22;50345;51.136;16.886;2023-12-28T15:13:00;8.40;99.90
6956;DHT22;50345;51.136;16.886;2023-12-28T15:15:26;8.40;99.90
6956;DHT22;50345;51.136;16.886;2023-12-28T15:17:52;8.30;99.90
6956;DHT22;50345;51.136;16.886;2023-12-28T15:20:18;8.20;99.90
6956;DHT22;50345;51.136;16.886;2023-12-28T15:22:44;8.20;99.90
6956;DHT22;50345;51.136;16.886;2023-12-28T15:25:10;8.10;99.90
6956;DHT22;50345;51.136;16.886;2023-12-28T15:27:35;8.00;99.90
6956;DHT22;50345;51.136;16.886;2023-12-28T15:30:02;8.00;99.90
6956;DHT22;50345;51.136;16.886;2023-12-28T15:32:28;8.00;99.90
6956;DHT22;50345;51.136;16.886;2023-12-28T15:34:54;7.90;99.90
6956;DHT22;50345;51.136;16.886;2023-12-28T15:37:19;7.80;99.90
6956;DHT22;50345;51.136;16.886;2023-12-28T15:39:45;7.80;99.90
6956;DHT22;50345;51.136;16.886;2023-12-28T15:42:10;7.80;99.90
6956;DHT22;50345;51.136;16.886;2023-12-28T15:44:36;7.70;99.90
6956;DHT22;50345;51.136;16.886;2023-12-28T15:47:01;7.70;99.90
6956;DHT22;50345;51.136;16.886;2023-12-28T15:49:27;7.70;99.90
6956;DHT22;50345;51.136;16.886;2023-12-28T15:51:52;7.60;99.90